sensor_id;sensor_type;location;lat;lon;timestamp;P1;durP1;ratioP1;P2;durP2;ratioP2
8986;SDS011;4529;51.360;12.474;2022-11-15T00:04:35;16.07;;;10.17;;
8986;SDS011;4529;51.360;12.474;2022-11-15T00:09:39;16.03;;;10.13;;
8986;SDS011;4529;51.360;12.474;2022-11-15T00:14:42;14.93;;;9.27;;
8986;SDS011;4529;51.360;12.474;2022-11-15T00:19:46;15.17;;;9.57;;
8986;SDS011;4529;51.360;12.474;2022-11-15T00:24:49;14.57;;;8.90;;
8986;SDS011;4529;51.360;12.474;2022-11-15T00:29:53;14.83;;;8.60;;
8986;SDS011;4529;51.360;12.474;2022-11-15T00:34:58;14.40;;;8.77;;
8986;SDS011;4529;51.360;12.474;2022-11-15T00:40:02;12.13;;;8.30;;
8986;SDS011;4529;51.360;12.474;2022-11-15T00:45:05;13.83;;;8.50;;
8986;SDS011;4529;51.360;12.474;2022-11-15T00:50:09;12.73;;;8.33;;
8986;SDS011;4529;51.360;12.474;2022-11-15T00:55:16;11.87;;;7.80;;
8986;SDS011;4529;51.360;12.474;2022-11-15T01:00:19;10.20;;;7.27;;
8986;SDS011;4529;51.360;12.474;2022-11-15T01:05:24;11.07;;;7.37;;
8986;SDS011;4529;51.360;12.474;2022-11-15T01:10:28;12.17;;;6.93;;
8986;SDS011;4529;51.360;12.474;2022-11-15T01:15:32;9.00;;;6.73;;
8986;SDS011;4529;51.360;12.474;2022-11-15T01:20:39;9.87;;;7.03;;
8986;SDS011;4529;51.360;12.474;2022-11-15T01:25:42;9.47;;;6.13;;
8986;SDS011;4529;51.360;12.474;2022-11-15T01:30:45;9.00;;;6.57;;
8986;SDS011;4529;51.360;12.474;2022-11-15T01:35:49;9.57;;;6.90;;
8986;SDS011;4529;51.360;12.474;2022-11-15T01:40:53;11.30;;;6.57;;
8986;SDS011;4529;51.360;12.474;2022-11-15T01:46:11;9.57;;;6.63;;
8986;SDS011;4529;51.360;12.474;2022-11-15T01:51:25;8.07;;;6.10;;
8986;SDS011;4529;51.360;12.474;2022-11-15T01:56:28;8.63;;;6.20;;
8986;SDS011;4529;51.360;12.474;2022-11-15T02:01:31;9.53;;;6.73;;
8986;SDS011;4529;51.360;12.474;2022-11-15T02:06:35;8.40;;;6.37;;
8986;SDS011;4529;51.360;12.474;2022-11-15T02:11:39;9.93;;;6.37;;
8986;SDS011;4529;51.360;12.474;2022-11-15T02:27:52;8.43;;;6.03;;
8986;SDS011;4529;51.360;12.474;2022-11-15T02:44:24;9.83;;;6.00;;
8986;SDS011;4529;51.360;12.474;2022-11-15T02:49:19;7.73;;;5.60;;
8986;SDS011;4529;51.360;12.474;2022-11-15T02:54:25;7.83;;;5.43;;
8986;SDS011;4529;51.360;12.474;2022-11-15T03:09:41;8.40;;;5.93;;
8986;SDS011;4529;51.360;12.474;2022-11-15T03:14:54;8.47;;;5.77;;
8986;SDS011;4529;51.360;12.474;2022-11-15T03:20:00;7.37;;;5.40;;
8986;SDS011;4529;51.360;12.474;2022-11-15T03:25:05;8.07;;;5.93;;
8986;SDS011;4529;51.360;12.474;2022-11-15T03:30:08;8.40;;;5.60;;
8986;SDS011;4529;51.360;12.474;2022-11-15T03:35:15;8.17;;;5.43;;
8986;SDS011;4529;51.360;12.474;2022-11-15T03:40:15;8.40;;;5.37;;
8986;SDS011;4529;51.360;12.474;2022-11-15T03:45:28;7.10;;;5.23;;
8986;SDS011;4529;51.360;12.474;2022-11-15T03:50:39;6.87;;;4.87;;
8986;SDS011;4529;51.360;12.474;2022-11-15T03:55:43;7.47;;;5.53;;
8986;SDS011;4529;51.360;12.474;2022-11-15T04:00:46;6.57;;;5.37;;
8986;SDS011;4529;51.360;12.474;2022-11-15T04:05:49;8.00;;;5.50;;
8986;SDS011;4529;51.360;12.474;2022-11-15T04:10:53;8.40;;;5.43;;
8986;SDS011;4529;51.360;12.474;2022-11-15T04:15:58;7.60;;;5.47;;
8986;SDS011;4529;51.360;12.474;2022-11-15T04:21:03;7.90;;;5.73;;
8986;SDS011;4529;51.360;12.474;2022-11-15T04:26:13;6.83;;;5.13;;
8986;SDS011;4529;51.360;12.474;2022-11-15T04:31:15;8.60;;;5.17;;
8986;SDS011;4529;51.360;12.474;2022-11-15T04:36:20;6.53;;;5.03;;
8986;SDS011;4529;51.360;12.474;2022-11-15T04:41:24;8.50;;;5.67;;
8986;SDS011;4529;51.360;12.474;2022-11-15T04:46:28;7.23;;;5.03;;
8986;SDS011;4529;51.360;12.474;2022-11-15T04:51:31;8.13;;;5.60;;
8986;SDS011;4529;51.360;12.474;2022-11-15T04:56:35;6.50;;;4.63;;
8986;SDS011;4529;51.360;12.474;2022-11-15T05:01:38;6.67;;;5.00;;
8986;SDS011;4529;51.360;12.474;2022-11-15T05:06:42;8.70;;;5.27;;
8986;SDS011;4529;51.360;12.474;2022-11-15T05:11:47;6.87;;;5.00;;
8986;SDS011;4529;51.360;12.474;2022-11-15T05:16:50;7.53;;;5.97;;
8986;SDS011;4529;51.360;12.474;2022-11-15T05:21:53;10.33;;;5.90;;
8986;SDS011;4529;51.360;12.474;2022-11-15T05:26:57;8.77;;;5.80;;
8986;SDS011;4529;51.360;12.474;2022-11-15T05:32:02;8.93;;;5.77;;
8986;SDS011;4529;51.360;12.474;2022-11-15T05:37:05;8.00;;;5.27;;
8986;SDS011;4529;51.360;12.474;2022-11-15T05:42:12;6.90;;;5.23;;
8986;SDS011;4529;51.360;12.474;2022-11-15T05:47:22;7.37;;;5.13;;
8986;SDS011;4529;51.360;12.474;2022-11-15T05:52:25;8.90;;;5.47;;
8986;SDS011;4529;51.360;12.474;2022-11-15T05:57:28;7.50;;;5.50;;
8986;SDS011;4529;51.360;12.474;2022-11-15T06:02:33;6.37;;;4.97;;
8986;SDS011;4529;51.360;12.474;2022-11-15T06:07:37;6.73;;;5.27;;
8986;SDS011;4529;51.360;12.474;2022-11-15T06:12:40;7.80;;;5.33;;
8986;SDS011;4529;51.360;12.474;2022-11-15T06:17:44;9.03;;;5.27;;
8986;SDS011;4529;51.360;12.474;2022-11-15T06:22:47;8.73;;;5.17;;
8986;SDS011;4529;51.360;12.474;2022-11-15T06:27:54;9.87;;;5.60;;
8986;SDS011;4529;51.360;12.474;2022-11-15T06:33:02;7.20;;;5.07;;
8986;SDS011;4529;51.360;12.474;2022-11-15T06:38:06;7.17;;;4.63;;
8986;SDS011;4529;51.360;12.474;2022-11-15T06:43:08;7.27;;;5.10;;
8986;SDS011;4529;51.360;12.474;2022-11-15T06:48:12;6.47;;;4.57;;
8986;SDS011;4529;51.360;12.474;2022-11-15T06:53:16;8.60;;;4.60;;
8986;SDS011;4529;51.360;12.474;2022-11-15T06:58:21;6.50;;;4.63;;
8986;SDS011;4529;51.360;12.474;2022-11-15T07:03:25;7.97;;;4.90;;
8986;SDS011;4529;51.360;12.474;2022-11-15T07:08:29;6.47;;;4.50;;
8986;SDS011;4529;51.360;12.474;2022-11-15T07:13:33;8.83;;;5.10;;
8986;SDS011;4529;51.360;12.474;2022-11-15T07:18:38;8.43;;;4.87;;
8986;SDS011;4529;51.360;12.474;2022-11-15T07:23:42;9.70;;;5.13;;
8986;SDS011;4529;51.360;12.474;2022-11-15T07:28:45;6.40;;;4.47;;
8986;SDS011;4529;51.360;12.474;2022-11-15T07:33:49;6.37;;;4.00;;
8986;SDS011;4529;51.360;12.474;2022-11-15T07:38:53;4.43;;;3.67;;
8986;SDS011;4529;51.360;12.474;2022-11-15T07:43:56;6.97;;;3.63;;
8986;SDS011;4529;51.360;12.474;2022-11-15T07:49:00;4.63;;;3.63;;
8986;SDS011;4529;51.360;12.474;2022-11-15T07:54:03;5.33;;;3.43;;
8986;SDS011;4529;51.360;12.474;2022-11-15T07:59:07;5.07;;;3.13;;
8986;SDS011;4529;51.360;12.474;2022-11-15T08:04:11;4.83;;;3.13;;
8986;SDS011;4529;51.360;12.474;2022-11-15T08:09:14;4.17;;;3.30;;
8986;SDS011;4529;51.360;12.474;2022-11-15T08:14:18;5.83;;;3.50;;
8986;SDS011;4529;51.360;12.474;2022-11-15T08:19:22;8.40;;;3.90;;
8986;SDS011;4529;51.360;12.474;2022-11-15T08:24:26;6.63;;;3.40;;
8986;SDS011;4529;51.360;12.474;2022-11-15T08:29:30;4.77;;;3.37;;
8986;SDS011;4529;51.360;12.474;2022-11-15T08:34:34;4.60;;;3.33;;
8986;SDS011;4529;51.360;12.474;2022-11-15T08:39:38;5.00;;;3.60;;
8986;SDS011;4529;51.360;12.474;2022-11-15T08:44:42;4.83;;;3.63;;
8986;SDS011;4529;51.360;12.474;2022-11-15T08:49:47;4.93;;;3.50;;
8986;SDS011;4529;51.360;12.474;2022-11-15T08:54:51;6.63;;;4.47;;
8986;SDS011;4529;51.360;12.474;2022-11-15T08:59:55;6.17;;;4.10;;
8986;SDS011;4529;51.360;12.474;2022-11-15T09:04:59;4.93;;;3.90;;
8986;SDS011;4529;51.360;12.474;2022-11-15T09:10:03;5.23;;;4.00;;
8986;SDS011;4529;51.360;12.474;2022-11-15T09:15:07;5.73;;;4.30;;
8986;SDS011;4529;51.360;12.474;2022-11-15T09:20:11;4.87;;;4.37;;
8986;SDS011;4529;51.360;12.474;2022-11-15T09:25:14;6.10;;;4.00;;
8986;SDS011;4529;51.360;12.474;2022-11-15T09:30:18;6.50;;;4.73;;
8986;SDS011;4529;51.360;12.474;2022-11-15T09:35:22;5.13;;;4.30;;
8986;SDS011;4529;51.360;12.474;2022-11-15T09:40:26;6.77;;;4.67;;
8986;SDS011;4529;51.360;12.474;2022-11-15T09:45:32;5.53;;;4.30;;
8986;SDS011;4529;51.360;12.474;2022-11-15T09:50:44;5.30;;;4.20;;
8986;SDS011;4529;51.360;12.474;2022-11-15T09:55:49;6.07;;;4.30;;
8986;SDS011;4529;51.360;12.474;2022-11-15T10:00:49;5.70;;;4.10;;
8986;SDS011;4529;51.360;12.474;2022-11-15T10:05:54;5.30;;;4.10;;
8986;SDS011;4529;51.360;12.474;2022-11-15T10:10:58;4.63;;;4.00;;
8986;SDS011;4529;51.360;12.474;2022-11-15T10:16:18;4.33;;;3.93;;
8986;SDS011;4529;51.360;12.474;2022-11-15T10:21:45;4.57;;;4.13;;
8986;SDS011;4529;51.360;12.474;2022-11-15T10:26:47;5.97;;;4.20;;
8986;SDS011;4529;51.360;12.474;2022-11-15T10:31:50;4.87;;;3.83;;
8986;SDS011;4529;51.360;12.474;2022-11-15T10:36:55;6.70;;;3.67;;
8986;SDS011;4529;51.360;12.474;2022-11-15T10:42:25;5.43;;;3.67;;
8986;SDS011;4529;51.360;12.474;2022-11-15T10:47:27;4.33;;;3.13;;
8986;SDS011;4529;51.360;12.474;2022-11-15T10:52:34;5.00;;;3.17;;
8986;SDS011;4529;51.360;12.474;2022-11-15T10:57:36;6.83;;;3.50;;
8986;SDS011;4529;51.360;12.474;2022-11-15T11:08:05;4.73;;;3.60;;
8986;SDS011;4529;51.360;12.474;2022-11-15T11:13:24;5.27;;;3.57;;
8986;SDS011;4529;51.360;12.474;2022-11-15T11:18:33;4.10;;;3.23;;
8986;SDS011;4529;51.360;12.474;2022-11-15T11:23:54;4.47;;;3.40;;
8986;SDS011;4529;51.360;12.474;2022-11-15T11:29:11;3.37;;;3.07;;
8986;SDS011;4529;51.360;12.474;2022-11-15T11:45:50;3.70;;;3.20;;
8986;SDS011;4529;51.360;12.474;2022-11-15T11:50:59;3.33;;;3.03;;
8986;SDS011;4529;51.360;12.474;2022-11-15T11:56:04;7.43;;;3.00;;
8986;SDS011;4529;51.360;12.474;2022-11-15T12:01:14;3.70;;;3.07;;
8986;SDS011;4529;51.360;12.474;2022-11-15T12:06:47;3.47;;;2.97;;
8986;SDS011;4529;51.360;12.474;2022-11-15T12:12:19;3.30;;;3.00;;
8986;SDS011;4529;51.360;12.474;2022-11-15T12:17:40;4.33;;;2.63;;
8986;SDS011;4529;51.360;12.474;2022-11-15T12:22:58;2.83;;;2.47;;
8986;SDS011;4529;51.360;12.474;2022-11-15T12:33:41;3.23;;;2.93;;
8986;SDS011;4529;51.360;12.474;2022-11-15T12:38:54;3.03;;;2.73;;
8986;SDS011;4529;51.360;12.474;2022-11-15T12:43:56;2.97;;;2.77;;
8986;SDS011;4529;51.360;12.474;2022-11-15T12:49:08;2.97;;;2.47;;
8986;SDS011;4529;51.360;12.474;2022-11-15T13:04:50;3.40;;;2.83;;
8986;SDS011;4529;51.360;12.474;2022-11-15T13:09:55;4.03;;;2.73;;
8986;SDS011;4529;51.360;12.474;2022-11-15T13:14:59;5.40;;;2.90;;
8986;SDS011;4529;51.360;12.474;2022-11-15T13:25:22;2.53;;;2.23;;
8986;SDS011;4529;51.360;12.474;2022-11-15T13:30:59;4.60;;;2.60;;
8986;SDS011;4529;51.360;12.474;2022-11-15T13:36:06;2.77;;;2.57;;
8986;SDS011;4529;51.360;12.474;2022-11-15T13:41:22;3.53;;;2.70;;
8986;SDS011;4529;51.360;12.474;2022-11-15T13:46:31;3.67;;;2.80;;
8986;SDS011;4529;51.360;12.474;2022-11-15T13:51:52;3.43;;;2.60;;
8986;SDS011;4529;51.360;12.474;2022-11-15T13:56:56;2.97;;;2.63;;
8986;SDS011;4529;51.360;12.474;2022-11-15T14:02:14;2.73;;;2.27;;
8986;SDS011;4529;51.360;12.474;2022-11-15T14:07:20;4.17;;;2.70;;
8986;SDS011;4529;51.360;12.474;2022-11-15T14:12:30;4.07;;;2.93;;
8986;SDS011;4529;51.360;12.474;2022-11-15T14:17:34;2.77;;;2.50;;
8986;SDS011;4529;51.360;12.474;2022-11-15T14:22:37;4.40;;;3.30;;
8986;SDS011;4529;51.360;12.474;2022-11-15T14:27:42;5.00;;;3.20;;
8986;SDS011;4529;51.360;12.474;2022-11-15T14:32:49;4.00;;;3.20;;
8986;SDS011;4529;51.360;12.474;2022-11-15T14:37:51;4.63;;;3.03;;
8986;SDS011;4529;51.360;12.474;2022-11-15T14:42:56;5.03;;;3.13;;
8986;SDS011;4529;51.360;12.474;2022-11-15T14:48:00;3.90;;;3.13;;
8986;SDS011;4529;51.360;12.474;2022-11-15T14:53:04;6.93;;;3.40;;
8986;SDS011;4529;51.360;12.474;2022-11-15T14:58:08;6.90;;;3.20;;
8986;SDS011;4529;51.360;12.474;2022-11-15T15:03:11;6.17;;;3.20;;
8986;SDS011;4529;51.360;12.474;2022-11-15T15:08:15;5.47;;;3.40;;
8986;SDS011;4529;51.360;12.474;2022-11-15T15:13:19;6.30;;;3.57;;
8986;SDS011;4529;51.360;12.474;2022-11-15T15:18:24;4.77;;;3.20;;
8986;SDS011;4529;51.360;12.474;2022-11-15T15:23:28;5.60;;;3.60;;
8986;SDS011;4529;51.360;12.474;2022-11-15T15:28:31;8.63;;;4.97;;
8986;SDS011;4529;51.360;12.474;2022-11-15T15:33:35;8.20;;;4.10;;
8986;SDS011;4529;51.360;12.474;2022-11-15T15:38:38;5.40;;;4.03;;
8986;SDS011;4529;51.360;12.474;2022-11-15T15:43:42;5.37;;;3.90;;
8986;SDS011;4529;51.360;12.474;2022-11-15T15:48:45;7.50;;;4.37;;
8986;SDS011;4529;51.360;12.474;2022-11-15T15:53:49;6.43;;;4.97;;
8986;SDS011;4529;51.360;12.474;2022-11-15T15:58:52;7.57;;;4.40;;
8986;SDS011;4529;51.360;12.474;2022-11-15T16:03:55;9.27;;;5.07;;
8986;SDS011;4529;51.360;12.474;2022-11-15T16:09:00;8.83;;;5.10;;
8986;SDS011;4529;51.360;12.474;2022-11-15T16:14:04;9.63;;;5.47;;
8986;SDS011;4529;51.360;12.474;2022-11-15T16:19:08;8.37;;;5.63;;
8986;SDS011;4529;51.360;12.474;2022-11-15T16:24:12;8.40;;;5.83;;
8986;SDS011;4529;51.360;12.474;2022-11-15T16:29:16;10.30;;;7.30;;
8986;SDS011;4529;51.360;12.474;2022-11-15T16:34:20;12.60;;;7.20;;
8986;SDS011;4529;51.360;12.474;2022-11-15T16:39:24;12.23;;;7.13;;
8986;SDS011;4529;51.360;12.474;2022-11-15T16:44:28;10.30;;;7.50;;
8986;SDS011;4529;51.360;12.474;2022-11-15T16:49:33;14.63;;;8.43;;
8986;SDS011;4529;51.360;12.474;2022-11-15T16:54:37;13.90;;;8.83;;
8986;SDS011;4529;51.360;12.474;2022-11-15T16:59:41;15.13;;;9.57;;
8986;SDS011;4529;51.360;12.474;2022-11-15T17:04:45;14.03;;;9.53;;
8986;SDS011;4529;51.360;12.474;2022-11-15T17:09:49;16.57;;;10.27;;
8986;SDS011;4529;51.360;12.474;2022-11-15T17:14:53;20.17;;;11.23;;
8986;SDS011;4529;51.360;12.474;2022-11-15T17:19:57;19.27;;;11.33;;
8986;SDS011;4529;51.360;12.474;2022-11-15T17:25:02;20.30;;;11.83;;
8986;SDS011;4529;51.360;12.474;2022-11-15T17:30:05;18.67;;;11.37;;
8986;SDS011;4529;51.360;12.474;2022-11-15T17:35:10;20.50;;;12.03;;
8986;SDS011;4529;51.360;12.474;2022-11-15T17:40:13;21.03;;;12.93;;
8986;SDS011;4529;51.360;12.474;2022-11-15T17:45:17;19.53;;;12.63;;
8986;SDS011;4529;51.360;12.474;2022-11-15T17:50:21;20.40;;;12.07;;
8986;SDS011;4529;51.360;12.474;2022-11-15T17:55:25;17.73;;;11.67;;
8986;SDS011;4529;51.360;12.474;2022-11-15T18:00:29;20.10;;;12.83;;
8986;SDS011;4529;51.360;12.474;2022-11-15T18:05:34;21.33;;;12.80;;
8986;SDS011;4529;51.360;12.474;2022-11-15T18:10:38;18.70;;;12.50;;
8986;SDS011;4529;51.360;12.474;2022-11-15T18:15:42;21.77;;;13.90;;
8986;SDS011;4529;51.360;12.474;2022-11-15T18:20:46;20.63;;;13.53;;
8986;SDS011;4529;51.360;12.474;2022-11-15T18:25:50;22.07;;;14.30;;
8986;SDS011;4529;51.360;12.474;2022-11-15T18:30:54;19.83;;;13.60;;
8986;SDS011;4529;51.360;12.474;2022-11-15T18:36:02;22.57;;;14.23;;
8986;SDS011;4529;51.360;12.474;2022-11-15T18:41:16;23.17;;;13.47;;
8986;SDS011;4529;51.360;12.474;2022-11-15T18:46:18;25.10;;;14.43;;
8986;SDS011;4529;51.360;12.474;2022-11-15T18:51:22;22.63;;;13.50;;
8986;SDS011;4529;51.360;12.474;2022-11-15T18:56:25;21.70;;;13.10;;
8986;SDS011;4529;51.360;12.474;2022-11-15T19:01:36;24.03;;;13.37;;
8986;SDS011;4529;51.360;12.474;2022-11-15T19:06:39;20.87;;;12.10;;
8986;SDS011;4529;51.360;12.474;2022-11-15T19:11:42;23.30;;;12.70;;
8986;SDS011;4529;51.360;12.474;2022-11-15T19:16:46;18.97;;;11.67;;
8986;SDS011;4529;51.360;12.474;2022-11-15T19:21:49;19.83;;;12.60;;
8986;SDS011;4529;51.360;12.474;2022-11-15T19:26:53;21.60;;;12.57;;
8986;SDS011;4529;51.360;12.474;2022-11-15T19:31:57;22.07;;;12.30;;
8986;SDS011;4529;51.360;12.474;2022-11-15T19:37:00;20.67;;;12.60;;
8986;SDS011;4529;51.360;12.474;2022-11-15T19:42:04;20.33;;;12.43;;
8986;SDS011;4529;51.360;12.474;2022-11-15T19:47:07;21.33;;;12.30;;
8986;SDS011;4529;51.360;12.474;2022-11-15T19:52:12;21.37;;;12.33;;
8986;SDS011;4529;51.360;12.474;2022-11-15T19:57:16;22.77;;;12.43;;
8986;SDS011;4529;51.360;12.474;2022-11-15T20:02:20;21.03;;;11.80;;
8986;SDS011;4529;51.360;12.474;2022-11-15T20:07:24;18.67;;;11.70;;
8986;SDS011;4529;51.360;12.474;2022-11-15T20:12:27;20.57;;;11.20;;
8986;SDS011;4529;51.360;12.474;2022-11-15T20:17:31;21.30;;;12.00;;
8986;SDS011;4529;51.360;12.474;2022-11-15T20:22:34;19.70;;;11.47;;
8986;SDS011;4529;51.360;12.474;2022-11-15T20:27:38;21.90;;;11.97;;
8986;SDS011;4529;51.360;12.474;2022-11-15T20:32:41;20.33;;;11.23;;
8986;SDS011;4529;51.360;12.474;2022-11-15T20:37:45;16.23;;;10.63;;
8986;SDS011;4529;51.360;12.474;2022-11-15T20:42:51;19.73;;;11.03;;
8986;SDS011;4529;51.360;12.474;2022-11-15T20:47:55;16.30;;;11.07;;
8986;SDS011;4529;51.360;12.474;2022-11-15T20:52:58;19.47;;;10.33;;
8986;SDS011;4529;51.360;12.474;2022-11-15T20:58:02;18.47;;;10.60;;
8986;SDS011;4529;51.360;12.474;2022-11-15T21:03:06;17.23;;;9.67;;
8986;SDS011;4529;51.360;12.474;2022-11-15T21:08:11;17.27;;;9.77;;
8986;SDS011;4529;51.360;12.474;2022-11-15T21:13:15;19.97;;;9.83;;
8986;SDS011;4529;51.360;12.474;2022-11-15T21:18:19;14.30;;;9.00;;
8986;SDS011;4529;51.360;12.474;2022-11-15T21:23:23;17.27;;;9.47;;
8986;SDS011;4529;51.360;12.474;2022-11-15T21:28:27;21.97;;;10.13;;
8986;SDS011;4529;51.360;12.474;2022-11-15T21:33:30;19.20;;;9.60;;
8986;SDS011;4529;51.360;12.474;2022-11-15T21:38:33;18.20;;;9.97;;
8986;SDS011;4529;51.360;12.474;2022-11-15T21:43:37;14.83;;;10.10;;
8986;SDS011;4529;51.360;12.474;2022-11-15T21:48:40;19.50;;;10.57;;
8986;SDS011;4529;51.360;12.474;2022-11-15T21:53:44;16.87;;;9.70;;
8986;SDS011;4529;51.360;12.474;2022-11-15T21:58:49;12.67;;;8.53;;
8986;SDS011;4529;51.360;12.474;2022-11-15T22:03:53;12.47;;;8.43;;
8986;SDS011;4529;51.360;12.474;2022-11-15T22:08:56;14.50;;;8.60;;
8986;SDS011;4529;51.360;12.474;2022-11-15T22:14:00;13.70;;;7.93;;
8986;SDS011;4529;51.360;12.474;2022-11-15T22:19:03;11.07;;;6.80;;
8986;SDS011;4529;51.360;12.474;2022-11-15T22:24:07;12.57;;;7.27;;
8986;SDS011;4529;51.360;12.474;2022-11-15T22:29:11;14.97;;;8.50;;
8986;SDS011;4529;51.360;12.474;2022-11-15T22:34:15;14.57;;;8.30;;
8986;SDS011;4529;51.360;12.474;2022-11-15T22:39:19;12.40;;;8.50;;
8986;SDS011;4529;51.360;12.474;2022-11-15T22:44:22;14.33;;;8.47;;
8986;SDS011;4529;51.360;12.474;2022-11-15T22:49:26;13.47;;;9.10;;
8986;SDS011;4529;51.360;12.474;2022-11-15T22:54:29;13.37;;;9.00;;
8986;SDS011;4529;51.360;12.474;2022-11-15T22:59:33;14.03;;;8.93;;
8986;SDS011;4529;51.360;12.474;2022-11-15T23:04:37;14.60;;;8.60;;
8986;SDS011;4529;51.360;12.474;2022-11-15T23:15:41;11.90;;;8.10;;
8986;SDS011;4529;51.360;12.474;2022-11-15T23:20:46;13.30;;;8.67;;
8986;SDS011;4529;51.360;12.474;2022-11-15T23:25:57;11.33;;;7.53;;
8986;SDS011;4529;51.360;12.474;2022-11-15T23:31:04;14.07;;;8.07;;
8986;SDS011;4529;51.360;12.474;2022-11-15T23:36:08;12.50;;;7.80;;
8986;SDS011;4529;51.360;12.474;2022-11-15T23:41:11;14.17;;;8.13;;
8986;SDS011;4529;51.360;12.474;2022-11-15T23:46:15;12.87;;;8.17;;
8986;SDS011;4529;51.360;12.474;2022-11-15T23:51:19;16.57;;;9.50;;
8986;SDS011;4529;51.360;12.474;2022-11-15T23:56:23;14.43;;;9.10;;
